Apopka, Florida
Current Conditions -  °F | °C
As of 6:53 AM on Tuesday 27 Jan 2015 (Local Time) from KORL Reporting Station
Clear Clear  
Wind Chill: 41°   Ceiling: Unl
Heat Index: 45°   Visibility: 10mi
Dew Point: 36°   Wind: 8mph
Humidity: 71%   Direction: 300°WNW
Pressure: 30.03"   Gusts: NA
Location:  28.67°N, 81.51°W
Report Text: KORL 271153Z 30007KT 10SM CLR 07/02 A3003 RMK AO2 SLP173 70001 T00720022 10100 20067 53018
Loading
Personal Weather Stations






























Interactive Weather Map New forecast layout! Learn more

10-Day Weather Forecast

Advertisements
Track Severe Weather on mobile